sensor_id;sensor_type;location;lat;lon;timestamp;temperature;humidity
12111;DHT22;6119;52.372;8.990;2022-08-11T00:01:19;21.10;99.90
12111;DHT22;6119;52.372;8.990;2022-08-11T00:04:06;21.00;99.90
12111;DHT22;6119;52.372;8.990;2022-08-11T00:06:54;20.90;99.90
12111;DHT22;6119;52.372;8.990;2022-08-11T00:09:41;20.90;99.90
12111;DHT22;6119;52.372;8.990;2022-08-11T00:12:28;20.90;99.90
12111;DHT22;6119;52.372;8.990;2022-08-11T00:15:15;20.80;99.90
12111;DHT22;6119;52.372;8.990;2022-08-11T00:18:02;20.80;99.90
12111;DHT22;6119;52.372;8.990;2022-08-11T00:20:57;20.80;99.90
12111;DHT22;6119;52.372;8.990;2022-08-11T00:23:52;20.70;99.90
12111;DHT22;6119;52.372;8.990;2022-08-11T00:26:39;20.70;99.90
12111;DHT22;6119;52.372;8.990;2022-08-11T00:29:26;20.60;99.90
12111;DHT22;6119;52.372;8.990;2022-08-11T00:32:14;20.60;99.90
12111;DHT22;6119;52.372;8.990;2022-08-11T00:35:02;20.50;99.90
12111;DHT22;6119;52.372;8.990;2022-08-11T00:38:10;20.50;99.90
12111;DHT22;6119;52.372;8.990;2022-08-11T00:41:07;20.50;99.90
12111;DHT22;6119;52.372;8.990;2022-08-11T00:44:21;20.50;99.90
12111;DHT22;6119;52.372;8.990;2022-08-11T00:47:17;20.40;99.90
12111;DHT22;6119;52.372;8.990;2022-08-11T00:50:17;20.40;99.90
12111;DHT22;6119;52.372;8.990;2022-08-11T00:53:29;20.40;99.90
12111;DHT22;6119;52.372;8.990;2022-08-11T00:56:54;20.30;99.90
12111;DHT22;6119;52.372;8.990;2022-08-11T01:00:13;20.30;99.90
12111;DHT22;6119;52.372;8.990;2022-08-11T01:03:15;20.30;99.90
12111;DHT22;6119;52.372;8.990;2022-08-11T01:06:26;20.20;99.90
12111;DHT22;6119;52.372;8.990;2022-08-11T01:09:36;20.20;99.90
12111;DHT22;6119;52.372;8.990;2022-08-11T01:12:42;20.10;99.90
12111;DHT22;6119;52.372;8.990;2022-08-11T01:15:56;20.10;99.90
12111;DHT22;6119;52.372;8.990;2022-08-11T01:19:07;20.10;99.90
12111;DHT22;6119;52.372;8.990;2022-08-11T01:22:18;20.10;99.90
12111;DHT22;6119;52.372;8.990;2022-08-11T01:29:15;19.90;99.90
12111;DHT22;6119;52.372;8.990;2022-08-11T01:32:41;19.90;99.90
12111;DHT22;6119;52.372;8.990;2022-08-11T01:35:52;19.90;99.90
12111;DHT22;6119;52.372;8.990;2022-08-11T01:39:25;19.80;99.90
12111;DHT22;6119;52.372;8.990;2022-08-11T01:46:00;19.80;99.90
12111;DHT22;6119;52.372;8.990;2022-08-11T01:49:05;19.70;99.90
12111;DHT22;6119;52.372;8.990;2022-08-11T01:52:19;19.70;99.90
12111;DHT22;6119;52.372;8.990;2022-08-11T01:55:24;19.60;99.90
12111;DHT22;6119;52.372;8.990;2022-08-11T01:58:16;19.60;99.90
12111;DHT22;6119;52.372;8.990;2022-08-11T02:01:35;19.50;99.90
12111;DHT22;6119;52.372;8.990;2022-08-11T02:04:30;19.50;99.90
12111;DHT22;6119;52.372;8.990;2022-08-11T02:07:25;19.40;99.90
12111;DHT22;6119;52.372;8.990;2022-08-11T02:10:21;19.40;99.90
12111;DHT22;6119;52.372;8.990;2022-08-11T02:13:41;19.40;99.90
12111;DHT22;6119;52.372;8.990;2022-08-11T02:16:45;19.30;99.90
12111;DHT22;6119;52.372;8.990;2022-08-11T02:19:42;19.20;99.90
12111;DHT22;6119;52.372;8.990;2022-08-11T02:22:59;19.10;99.90
12111;DHT22;6119;52.372;8.990;2022-08-11T02:26:29;19.20;99.90
12111;DHT22;6119;52.372;8.990;2022-08-11T02:29:20;19.10;99.90
12111;DHT22;6119;52.372;8.990;2022-08-11T02:32:14;19.20;99.90
12111;DHT22;6119;52.372;8.990;2022-08-11T02:35:25;19.10;99.90
12111;DHT22;6119;52.372;8.990;2022-08-11T02:41:25;19.00;99.90
12111;DHT22;6119;52.372;8.990;2022-08-11T02:44:36;18.90;99.90
12111;DHT22;6119;52.372;8.990;2022-08-11T02:47:34;19.10;99.90
12111;DHT22;6119;52.372;8.990;2022-08-11T02:50:25;19.10;99.90
12111;DHT22;6119;52.372;8.990;2022-08-11T02:53:21;19.00;99.90
12111;DHT22;6119;52.372;8.990;2022-08-11T02:56:15;19.00;99.90
12111;DHT22;6119;52.372;8.990;2022-08-11T02:59:22;19.00;99.90
12111;DHT22;6119;52.372;8.990;2022-08-11T03:02:50;18.90;99.90
12111;DHT22;6119;52.372;8.990;2022-08-11T03:05:47;18.80;99.90
12111;DHT22;6119;52.372;8.990;2022-08-11T03:08:51;18.80;99.90
12111;DHT22;6119;52.372;8.990;2022-08-11T03:11:49;18.80;99.90
12111;DHT22;6119;52.372;8.990;2022-08-11T03:15:00;18.70;99.90
12111;DHT22;6119;52.372;8.990;2022-08-11T03:18:17;18.70;99.90
12111;DHT22;6119;52.372;8.990;2022-08-11T03:21:08;18.60;99.90
12111;DHT22;6119;52.372;8.990;2022-08-11T03:24:05;18.60;99.90
12111;DHT22;6119;52.372;8.990;2022-08-11T03:27:02;18.50;99.90
12111;DHT22;6119;52.372;8.990;2022-08-11T03:30:02;18.60;99.90
12111;DHT22;6119;52.372;8.990;2022-08-11T03:32:57;18.40;99.90
12111;DHT22;6119;52.372;8.990;2022-08-11T03:36:13;18.40;99.90
12111;DHT22;6119;52.372;8.990;2022-08-11T03:39:09;18.30;99.90
12111;DHT22;6119;52.372;8.990;2022-08-11T03:42:07;18.30;99.90
12111;DHT22;6119;52.372;8.990;2022-08-11T03:45:20;18.30;99.90
12111;DHT22;6119;52.372;8.990;2022-08-11T03:48:14;18.30;99.90
12111;DHT22;6119;52.372;8.990;2022-08-11T03:51:10;18.30;99.90
12111;DHT22;6119;52.372;8.990;2022-08-11T03:54:09;18.30;99.90
12111;DHT22;6119;52.372;8.990;2022-08-11T03:57:25;18.20;99.90
12111;DHT22;6119;52.372;8.990;2022-08-11T04:00:36;18.20;99.90
12111;DHT22;6119;52.372;8.990;2022-08-11T04:03:55;18.20;99.90
12111;DHT22;6119;52.372;8.990;2022-08-11T04:07:17;18.10;99.90
12111;DHT22;6119;52.372;8.990;2022-08-11T04:10:31;18.10;99.90
12111;DHT22;6119;52.372;8.990;2022-08-11T04:13:48;18.00;99.90
12111;DHT22;6119;52.372;8.990;2022-08-11T04:16:41;18.10;99.90
12111;DHT22;6119;52.372;8.990;2022-08-11T04:20:01;18.00;99.90
12111;DHT22;6119;52.372;8.990;2022-08-11T04:23:13;18.00;99.90
12111;DHT22;6119;52.372;8.990;2022-08-11T04:26:43;18.00;99.90
12111;DHT22;6119;52.372;8.990;2022-08-11T04:29:55;18.00;99.90
12111;DHT22;6119;52.372;8.990;2022-08-11T04:33:28;18.00;99.90
12111;DHT22;6119;52.372;8.990;2022-08-11T04:36:40;18.00;99.90
12111;DHT22;6119;52.372;8.990;2022-08-11T04:40:09;17.90;99.90
12111;DHT22;6119;52.372;8.990;2022-08-11T04:43:41;18.00;99.90
12111;DHT22;6119;52.372;8.990;2022-08-11T04:47:13;18.00;99.90
12111;DHT22;6119;52.372;8.990;2022-08-11T04:51:01;17.20;99.90
12111;DHT22;6119;52.372;8.990;2022-08-11T04:54:22;18.00;99.90
12111;DHT22;6119;52.372;8.990;2022-08-11T04:57:39;18.10;99.90
12111;DHT22;6119;52.372;8.990;2022-08-11T05:00:54;18.20;99.90
12111;DHT22;6119;52.372;8.990;2022-08-11T05:04:36;18.20;99.90
12111;DHT22;6119;52.372;8.990;2022-08-11T05:08:20;18.20;99.90
12111;DHT22;6119;52.372;8.990;2022-08-11T05:11:57;18.30;99.90
12111;DHT22;6119;52.372;8.990;2022-08-11T05:14:49;18.40;99.90
12111;DHT22;6119;52.372;8.990;2022-08-11T05:17:59;18.50;99.90
12111;DHT22;6119;52.372;8.990;2022-08-11T05:21:06;18.50;99.90
12111;DHT22;6119;52.372;8.990;2022-08-11T05:24:18;18.60;99.90
12111;DHT22;6119;52.372;8.990;2022-08-11T05:27:30;18.60;99.90
12111;DHT22;6119;52.372;8.990;2022-08-11T05:30:39;18.70;99.90
12111;DHT22;6119;52.372;8.990;2022-08-11T05:33:48;18.80;99.90
12111;DHT22;6119;52.372;8.990;2022-08-11T05:36:56;18.90;99.90
12111;DHT22;6119;52.372;8.990;2022-08-11T05:40:07;18.90;99.90
12111;DHT22;6119;52.372;8.990;2022-08-11T05:43:12;19.00;99.90
12111;DHT22;6119;52.372;8.990;2022-08-11T05:46:17;19.00;99.90
12111;DHT22;6119;52.372;8.990;2022-08-11T05:49:23;19.10;99.90
12111;DHT22;6119;52.372;8.990;2022-08-11T05:52:29;19.00;99.90
12111;DHT22;6119;52.372;8.990;2022-08-11T05:55:41;19.20;99.90
12111;DHT22;6119;52.372;8.990;2022-08-11T05:58:49;19.30;99.90
12111;DHT22;6119;52.372;8.990;2022-08-11T06:01:37;19.30;99.90
12111;DHT22;6119;52.372;8.990;2022-08-11T06:04:27;19.30;99.90
12111;DHT22;6119;52.372;8.990;2022-08-11T06:07:14;19.50;99.90
12111;DHT22;6119;52.372;8.990;2022-08-11T06:10:02;19.50;99.90
12111;DHT22;6119;52.372;8.990;2022-08-11T06:12:51;19.50;99.90
12111;DHT22;6119;52.372;8.990;2022-08-11T06:15:43;19.70;99.90
12111;DHT22;6119;52.372;8.990;2022-08-11T06:18:30;19.70;99.90
12111;DHT22;6119;52.372;8.990;2022-08-11T06:21:20;19.80;99.90
12111;DHT22;6119;52.372;8.990;2022-08-11T06:24:11;19.90;99.90
12111;DHT22;6119;52.372;8.990;2022-08-11T06:26:59;19.90;99.90
12111;DHT22;6119;52.372;8.990;2022-08-11T06:29:58;20.10;99.90
12111;DHT22;6119;52.372;8.990;2022-08-11T06:32:45;20.10;99.90
12111;DHT22;6119;52.372;8.990;2022-08-11T06:35:37;20.20;99.90
12111;DHT22;6119;52.372;8.990;2022-08-11T06:38:38;20.20;99.90
12111;DHT22;6119;52.372;8.990;2022-08-11T06:41:32;20.30;99.90
12111;DHT22;6119;52.372;8.990;2022-08-11T06:44:28;20.40;99.90
12111;DHT22;6119;52.372;8.990;2022-08-11T06:47:16;20.50;99.90
12111;DHT22;6119;52.372;8.990;2022-08-11T06:50:05;20.40;99.90
12111;DHT22;6119;52.372;8.990;2022-08-11T06:53:10;20.60;99.90
12111;DHT22;6119;52.372;8.990;2022-08-11T06:56:00;20.70;99.90
12111;DHT22;6119;52.372;8.990;2022-08-11T06:59:06;20.80;99.90
12111;DHT22;6119;52.372;8.990;2022-08-11T07:02:16;21.00;99.90
12111;DHT22;6119;52.372;8.990;2022-08-11T07:05:10;21.00;99.90
12111;DHT22;6119;52.372;8.990;2022-08-11T07:08:30;21.20;99.90
12111;DHT22;6119;52.372;8.990;2022-08-11T07:12:00;21.30;99.90
12111;DHT22;6119;52.372;8.990;2022-08-11T07:15:08;21.40;99.90
12111;DHT22;6119;52.372;8.990;2022-08-11T07:18:34;21.50;99.90
12111;DHT22;6119;52.372;8.990;2022-08-11T07:21:40;21.60;99.90
12111;DHT22;6119;52.372;8.990;2022-08-11T07:24:53;22.60;99.90
12111;DHT22;6119;52.372;8.990;2022-08-11T07:28:01;21.90;99.90
12111;DHT22;6119;52.372;8.990;2022-08-11T07:31:12;22.00;99.90
12111;DHT22;6119;52.372;8.990;2022-08-11T07:34:08;22.10;99.90
12111;DHT22;6119;52.372;8.990;2022-08-11T07:37:08;22.10;99.90
12111;DHT22;6119;52.372;8.990;2022-08-11T07:39:58;22.30;99.90
12111;DHT22;6119;52.372;8.990;2022-08-11T07:42:45;22.50;99.90
12111;DHT22;6119;52.372;8.990;2022-08-11T07:45:34;22.60;99.90
12111;DHT22;6119;52.372;8.990;2022-08-11T07:48:40;22.70;99.90
12111;DHT22;6119;52.372;8.990;2022-08-11T07:51:45;22.90;99.90
12111;DHT22;6119;52.372;8.990;2022-08-11T07:54:50;23.00;99.90
12111;DHT22;6119;52.372;8.990;2022-08-11T07:57:39;23.10;99.90
12111;DHT22;6119;52.372;8.990;2022-08-11T08:01:05;23.30;99.90
12111;DHT22;6119;52.372;8.990;2022-08-11T08:04:11;23.50;99.90
12111;DHT22;6119;52.372;8.990;2022-08-11T08:07:20;23.50;99.90
12111;DHT22;6119;52.372;8.990;2022-08-11T08:10:25;23.70;99.90
12111;DHT22;6119;52.372;8.990;2022-08-11T08:13:31;23.80;99.90
12111;DHT22;6119;52.372;8.990;2022-08-11T08:16:38;24.00;99.90
12111;DHT22;6119;52.372;8.990;2022-08-11T08:19:46;24.00;99.90
12111;DHT22;6119;52.372;8.990;2022-08-11T08:22:34;24.30;99.90
12111;DHT22;6119;52.372;8.990;2022-08-11T08:25:25;24.30;99.90
12111;DHT22;6119;52.372;8.990;2022-08-11T08:28:15;24.40;99.90
12111;DHT22;6119;52.372;8.990;2022-08-11T08:31:02;24.50;99.90
12111;DHT22;6119;52.372;8.990;2022-08-11T08:33:50;24.70;99.90
12111;DHT22;6119;52.372;8.990;2022-08-11T08:36:39;24.90;99.90
12111;DHT22;6119;52.372;8.990;2022-08-11T08:39:28;25.00;99.90
12111;DHT22;6119;52.372;8.990;2022-08-11T08:42:22;25.00;99.90
12111;DHT22;6119;52.372;8.990;2022-08-11T08:45:11;25.20;99.90
12111;DHT22;6119;52.372;8.990;2022-08-11T08:48:02;25.30;99.50
12111;DHT22;6119;52.372;8.990;2022-08-11T08:50:55;25.40;99.70
12111;DHT22;6119;52.372;8.990;2022-08-11T08:54:07;25.60;99.10
12111;DHT22;6119;52.372;8.990;2022-08-11T08:56:55;25.70;96.70
12111;DHT22;6119;52.372;8.990;2022-08-11T08:59:44;25.90;96.70
12111;DHT22;6119;52.372;8.990;2022-08-11T09:02:34;25.90;96.90
12111;DHT22;6119;52.372;8.990;2022-08-11T09:05:22;26.10;95.40
12111;DHT22;6119;52.372;8.990;2022-08-11T09:08:11;26.20;94.10
12111;DHT22;6119;52.372;8.990;2022-08-11T09:10:58;26.30;94.40
12111;DHT22;6119;52.372;8.990;2022-08-11T09:14:04;26.40;95.10
12111;DHT22;6119;52.372;8.990;2022-08-11T09:16:57;26.60;95.40
12111;DHT22;6119;52.372;8.990;2022-08-11T09:19:44;26.80;94.70
12111;DHT22;6119;52.372;8.990;2022-08-11T09:22:42;26.80;94.50
12111;DHT22;6119;52.372;8.990;2022-08-11T09:26:09;27.00;93.20
12111;DHT22;6119;52.372;8.990;2022-08-11T09:29:15;27.20;93.70
12111;DHT22;6119;52.372;8.990;2022-08-11T09:32:02;27.10;92.10
12111;DHT22;6119;52.372;8.990;2022-08-11T09:34:51;27.30;92.90
12111;DHT22;6119;52.372;8.990;2022-08-11T09:37:39;27.30;92.00
12111;DHT22;6119;52.372;8.990;2022-08-11T09:40:46;27.40;90.80
12111;DHT22;6119;52.372;8.990;2022-08-11T09:43:44;27.40;90.40
12111;DHT22;6119;52.372;8.990;2022-08-11T09:46:50;27.60;90.10
12111;DHT22;6119;52.372;8.990;2022-08-11T09:49:41;27.80;91.80
12111;DHT22;6119;52.372;8.990;2022-08-11T09:52:29;28.00;88.90
12111;DHT22;6119;52.372;8.990;2022-08-11T09:55:17;28.20;88.30
12111;DHT22;6119;52.372;8.990;2022-08-11T09:58:05;28.20;87.90
12111;DHT22;6119;52.372;8.990;2022-08-11T10:01:24;28.10;87.60
12111;DHT22;6119;52.372;8.990;2022-08-11T10:04:14;28.20;83.60
12111;DHT22;6119;52.372;8.990;2022-08-11T10:07:03;28.50;82.70
12111;DHT22;6119;52.372;8.990;2022-08-11T10:09:54;28.60;86.40
12111;DHT22;6119;52.372;8.990;2022-08-11T10:12:46;28.80;85.90
12111;DHT22;6119;52.372;8.990;2022-08-11T10:15:35;28.80;82.80
12111;DHT22;6119;52.372;8.990;2022-08-11T10:18:32;28.90;81.30
12111;DHT22;6119;52.372;8.990;2022-08-11T10:21:37;28.90;78.20
12111;DHT22;6119;52.372;8.990;2022-08-11T10:24:25;29.10;80.30
12111;DHT22;6119;52.372;8.990;2022-08-11T10:27:30;29.10;78.70
12111;DHT22;6119;52.372;8.990;2022-08-11T10:30:37;29.20;79.80
12111;DHT22;6119;52.372;8.990;2022-08-11T10:33:45;29.20;79.10
12111;DHT22;6119;52.372;8.990;2022-08-11T10:36:48;29.50;79.40
12111;DHT22;6119;52.372;8.990;2022-08-11T10:39:35;29.40;76.30
12111;DHT22;6119;52.372;8.990;2022-08-11T10:42:23;29.50;78.00
12111;DHT22;6119;52.372;8.990;2022-08-11T10:45:44;29.70;77.00
12111;DHT22;6119;52.372;8.990;2022-08-11T10:48:50;29.60;75.10
12111;DHT22;6119;52.372;8.990;2022-08-11T10:51:36;29.70;76.90
12111;DHT22;6119;52.372;8.990;2022-08-11T10:54:43;29.80;78.70
12111;DHT22;6119;52.372;8.990;2022-08-11T10:57:48;29.80;78.10
12111;DHT22;6119;52.372;8.990;2022-08-11T11:00:52;29.90;77.10
12111;DHT22;6119;52.372;8.990;2022-08-11T11:03:41;30.00;73.90
12111;DHT22;6119;52.372;8.990;2022-08-11T11:06:35;30.00;74.00
12111;DHT22;6119;52.372;8.990;2022-08-11T11:09:31;30.20;77.30
12111;DHT22;6119;52.372;8.990;2022-08-11T11:12:24;30.40;77.90
12111;DHT22;6119;52.372;8.990;2022-08-11T11:15:31;30.50;76.60
12111;DHT22;6119;52.372;8.990;2022-08-11T11:18:37;30.50;73.20
12111;DHT22;6119;52.372;8.990;2022-08-11T11:21:24;30.50;70.70
12111;DHT22;6119;52.372;8.990;2022-08-11T11:24:16;30.50;72.40
12111;DHT22;6119;52.372;8.990;2022-08-11T11:27:12;30.20;69.30
12111;DHT22;6119;52.372;8.990;2022-08-11T11:30:04;30.30;72.00
12111;DHT22;6119;52.372;8.990;2022-08-11T11:33:01;30.50;71.50
12111;DHT22;6119;52.372;8.990;2022-08-11T11:36:00;30.80;71.00
12111;DHT22;6119;52.372;8.990;2022-08-11T11:38:54;30.80;70.20
12111;DHT22;6119;52.372;8.990;2022-08-11T11:41:43;30.90;70.90
12111;DHT22;6119;52.372;8.990;2022-08-11T11:44:30;31.00;67.80
12111;DHT22;6119;52.372;8.990;2022-08-11T11:47:18;31.00;67.70
12111;DHT22;6119;52.372;8.990;2022-08-11T11:50:07;31.10;67.60
12111;DHT22;6119;52.372;8.990;2022-08-11T11:52:55;31.30;66.30
12111;DHT22;6119;52.372;8.990;2022-08-11T11:55:43;31.00;65.90
12111;DHT22;6119;52.372;8.990;2022-08-11T11:58:32;31.10;64.30
12111;DHT22;6119;52.372;8.990;2022-08-11T12:01:36;31.10;66.20
12111;DHT22;6119;52.372;8.990;2022-08-11T12:04:23;31.30;67.60
12111;DHT22;6119;52.372;8.990;2022-08-11T12:07:11;31.70;67.40
12111;DHT22;6119;52.372;8.990;2022-08-11T12:10:16;31.70;64.10
12111;DHT22;6119;52.372;8.990;2022-08-11T12:13:03;31.70;64.80
12111;DHT22;6119;52.372;8.990;2022-08-11T12:16:11;31.90;64.50
12111;DHT22;6119;52.372;8.990;2022-08-11T12:19:22;32.00;66.00
12111;DHT22;6119;52.372;8.990;2022-08-11T12:22:10;32.10;61.40
12111;DHT22;6119;52.372;8.990;2022-08-11T12:25:15;32.00;61.80
12111;DHT22;6119;52.372;8.990;2022-08-11T12:28:20;32.00;59.70
12111;DHT22;6119;52.372;8.990;2022-08-11T12:31:15;32.10;65.10
12111;DHT22;6119;52.372;8.990;2022-08-11T12:34:03;32.00;60.70
12111;DHT22;6119;52.372;8.990;2022-08-11T12:36:53;32.10;61.20
12111;DHT22;6119;52.372;8.990;2022-08-11T12:39:44;32.10;63.00
12111;DHT22;6119;52.372;8.990;2022-08-11T12:43:13;32.10;61.50
12111;DHT22;6119;52.372;8.990;2022-08-11T12:46:28;32.70;60.30
12111;DHT22;6119;52.372;8.990;2022-08-11T12:49:19;32.60;62.20
12111;DHT22;6119;52.372;8.990;2022-08-11T12:52:33;32.60;60.60
12111;DHT22;6119;52.372;8.990;2022-08-11T12:55:22;32.60;58.90
12111;DHT22;6119;52.372;8.990;2022-08-11T12:58:24;32.60;59.70
12111;DHT22;6119;52.372;8.990;2022-08-11T13:01:12;32.80;57.90
12111;DHT22;6119;52.372;8.990;2022-08-11T13:04:18;32.80;59.00
12111;DHT22;6119;52.372;8.990;2022-08-11T13:07:22;33.00;59.80
12111;DHT22;6119;52.372;8.990;2022-08-11T13:10:11;33.10;56.90
12111;DHT22;6119;52.372;8.990;2022-08-11T13:13:02;33.00;59.10
12111;DHT22;6119;52.372;8.990;2022-08-11T13:16:08;33.10;60.40
12111;DHT22;6119;52.372;8.990;2022-08-11T13:18:58;33.40;58.60
12111;DHT22;6119;52.372;8.990;2022-08-11T13:21:48;33.30;58.20
12111;DHT22;6119;52.372;8.990;2022-08-11T13:24:35;33.10;57.50
12111;DHT22;6119;52.372;8.990;2022-08-11T13:27:22;33.10;56.80
12111;DHT22;6119;52.372;8.990;2022-08-11T13:30:10;33.00;57.30
12111;DHT22;6119;52.372;8.990;2022-08-11T13:33:16;33.00;57.40
12111;DHT22;6119;52.372;8.990;2022-08-11T13:36:03;33.40;59.20
12111;DHT22;6119;52.372;8.990;2022-08-11T13:38:54;33.10;57.50
12111;DHT22;6119;52.372;8.990;2022-08-11T13:41:42;33.30;58.00
12111;DHT22;6119;52.372;8.990;2022-08-11T13:44:37;33.20;58.40
12111;DHT22;6119;52.372;8.990;2022-08-11T13:47:24;33.40;56.10
12111;DHT22;6119;52.372;8.990;2022-08-11T13:50:13;33.40;55.00
12111;DHT22;6119;52.372;8.990;2022-08-11T13:53:00;33.30;54.30
12111;DHT22;6119;52.372;8.990;2022-08-11T13:55:48;33.70;54.30
12111;DHT22;6119;52.372;8.990;2022-08-11T13:58:37;33.70;53.90
12111;DHT22;6119;52.372;8.990;2022-08-11T14:01:27;33.90;56.70
12111;DHT22;6119;52.372;8.990;2022-08-11T14:04:38;33.80;57.50
12111;DHT22;6119;52.372;8.990;2022-08-11T14:07:31;33.90;56.00
12111;DHT22;6119;52.372;8.990;2022-08-11T14:10:22;33.80;56.40
12111;DHT22;6119;52.372;8.990;2022-08-11T14:13:13;33.90;57.10
12111;DHT22;6119;52.372;8.990;2022-08-11T14:16:35;33.90;55.20
12111;DHT22;6119;52.372;8.990;2022-08-11T14:19:26;33.90;55.40
12111;DHT22;6119;52.372;8.990;2022-08-11T14:22:15;34.00;55.80
12111;DHT22;6119;52.372;8.990;2022-08-11T14:25:02;33.80;55.80
12111;DHT22;6119;52.372;8.990;2022-08-11T14:27:48;34.00;55.60
12111;DHT22;6119;52.372;8.990;2022-08-11T14:30:57;33.80;55.30
12111;DHT22;6119;52.372;8.990;2022-08-11T14:33:46;33.90;55.30
12111;DHT22;6119;52.372;8.990;2022-08-11T14:36:48;34.10;56.40
12111;DHT22;6119;52.372;8.990;2022-08-11T14:39:40;33.90;55.70
12111;DHT22;6119;52.372;8.990;2022-08-11T14:42:28;34.00;55.50
12111;DHT22;6119;52.372;8.990;2022-08-11T14:45:33;34.00;54.40
12111;DHT22;6119;52.372;8.990;2022-08-11T14:48:44;33.90;54.70
12111;DHT22;6119;52.372;8.990;2022-08-11T14:51:32;34.10;55.40
12111;DHT22;6119;52.372;8.990;2022-08-11T14:54:18;33.90;55.30
12111;DHT22;6119;52.372;8.990;2022-08-11T14:57:24;34.20;54.70
12111;DHT22;6119;52.372;8.990;2022-08-11T15:00:32;34.20;54.60
12111;DHT22;6119;52.372;8.990;2022-08-11T15:03:21;34.40;53.10
12111;DHT22;6119;52.372;8.990;2022-08-11T15:06:14;34.00;52.90
12111;DHT22;6119;52.372;8.990;2022-08-11T15:09:01;34.30;53.50
12111;DHT22;6119;52.372;8.990;2022-08-11T15:11:53;34.20;52.80
12111;DHT22;6119;52.372;8.990;2022-08-11T15:15:18;34.10;53.10
12111;DHT22;6119;52.372;8.990;2022-08-11T15:18:23;34.10;53.20
12111;DHT22;6119;52.372;8.990;2022-08-11T15:21:10;34.10;52.50
12111;DHT22;6119;52.372;8.990;2022-08-11T15:24:16;34.20;51.90
12111;DHT22;6119;52.372;8.990;2022-08-11T15:27:10;34.40;51.90
12111;DHT22;6119;52.372;8.990;2022-08-11T15:30:16;34.60;52.20
12111;DHT22;6119;52.372;8.990;2022-08-11T15:33:21;34.70;52.50
12111;DHT22;6119;52.372;8.990;2022-08-11T15:36:26;34.70;51.00
12111;DHT22;6119;52.372;8.990;2022-08-11T15:39:40;34.70;51.10
12111;DHT22;6119;52.372;8.990;2022-08-11T15:43:15;34.80;51.00
12111;DHT22;6119;52.372;8.990;2022-08-11T15:46:26;34.40;52.00
12111;DHT22;6119;52.372;8.990;2022-08-11T15:49:21;34.80;52.00
12111;DHT22;6119;52.372;8.990;2022-08-11T15:52:10;34.70;51.80
12111;DHT22;6119;52.372;8.990;2022-08-11T15:55:05;34.80;51.30
12111;DHT22;6119;52.372;8.990;2022-08-11T15:57:54;34.60;51.50
12111;DHT22;6119;52.372;8.990;2022-08-11T16:01:00;34.40;51.60
12111;DHT22;6119;52.372;8.990;2022-08-11T16:04:08;34.30;51.80
12111;DHT22;6119;52.372;8.990;2022-08-11T16:07:00;34.30;50.50
12111;DHT22;6119;52.372;8.990;2022-08-11T16:09:50;34.60;51.60
12111;DHT22;6119;52.372;8.990;2022-08-11T16:12:48;34.30;50.40
12111;DHT22;6119;52.372;8.990;2022-08-11T16:16:05;34.70;51.10
12111;DHT22;6119;52.372;8.990;2022-08-11T16:19:00;34.60;50.40
12111;DHT22;6119;52.372;8.990;2022-08-11T16:21:50;34.70;51.90
12111;DHT22;6119;52.372;8.990;2022-08-11T16:24:40;34.50;51.40
12111;DHT22;6119;52.372;8.990;2022-08-11T16:27:54;34.70;51.10
12111;DHT22;6119;52.372;8.990;2022-08-11T16:30:42;34.70;51.80
12111;DHT22;6119;52.372;8.990;2022-08-11T16:33:30;35.00;51.90
12111;DHT22;6119;52.372;8.990;2022-08-11T16:36:35;34.90;50.20
12111;DHT22;6119;52.372;8.990;2022-08-11T16:39:40;34.70;51.30
12111;DHT22;6119;52.372;8.990;2022-08-11T16:42:32;34.70;51.60
12111;DHT22;6119;52.372;8.990;2022-08-11T16:45:57;34.60;50.60
12111;DHT22;6119;52.372;8.990;2022-08-11T16:49:04;34.30;49.80
12111;DHT22;6119;52.372;8.990;2022-08-11T16:51:51;34.50;50.40
12111;DHT22;6119;52.372;8.990;2022-08-11T16:54:40;34.70;50.30
12111;DHT22;6119;52.372;8.990;2022-08-11T16:57:30;34.60;50.00
12111;DHT22;6119;52.372;8.990;2022-08-11T17:00:51;34.50;49.90
12111;DHT22;6119;52.372;8.990;2022-08-11T17:03:45;34.70;50.80
12111;DHT22;6119;52.372;8.990;2022-08-11T17:06:51;34.60;50.00
12111;DHT22;6119;52.372;8.990;2022-08-11T17:10:18;34.40;51.00
12111;DHT22;6119;52.372;8.990;2022-08-11T17:13:41;34.70;50.90
12111;DHT22;6119;52.372;8.990;2022-08-11T17:16:34;34.60;49.60
12111;DHT22;6119;52.372;8.990;2022-08-11T17:19:27;34.40;50.20
12111;DHT22;6119;52.372;8.990;2022-08-11T17:22:37;34.40;50.60
12111;DHT22;6119;52.372;8.990;2022-08-11T17:25:48;34.20;49.80
12111;DHT22;6119;52.372;8.990;2022-08-11T17:28:51;34.20;50.90
12111;DHT22;6119;52.372;8.990;2022-08-11T17:31:40;34.30;50.80
12111;DHT22;6119;52.372;8.990;2022-08-11T17:34:48;34.70;50.70
12111;DHT22;6119;52.372;8.990;2022-08-11T17:37:54;34.40;51.10
12111;DHT22;6119;52.372;8.990;2022-08-11T17:40:44;33.70;50.30
12111;DHT22;6119;52.372;8.990;2022-08-11T17:43:47;33.30;51.80
12111;DHT22;6119;52.372;8.990;2022-08-11T17:46:52;33.30;51.60
12111;DHT22;6119;52.372;8.990;2022-08-11T17:49:59;33.10;52.60
12111;DHT22;6119;52.372;8.990;2022-08-11T17:53:02;33.10;52.90
12111;DHT22;6119;52.372;8.990;2022-08-11T17:56:06;32.80;52.80
12111;DHT22;6119;52.372;8.990;2022-08-11T17:59:12;32.70;53.40
12111;DHT22;6119;52.372;8.990;2022-08-11T18:02:22;32.50;53.80
12111;DHT22;6119;52.372;8.990;2022-08-11T18:05:31;32.20;54.40
12111;DHT22;6119;52.372;8.990;2022-08-11T18:08:19;32.20;55.00
12111;DHT22;6119;52.372;8.990;2022-08-11T18:11:24;32.00;55.10
12111;DHT22;6119;52.372;8.990;2022-08-11T18:14:53;31.80;55.10
12111;DHT22;6119;52.372;8.990;2022-08-11T18:17:57;31.70;55.80
12111;DHT22;6119;52.372;8.990;2022-08-11T18:21:05;31.60;55.60
12111;DHT22;6119;52.372;8.990;2022-08-11T18:24:11;31.50;56.10
12111;DHT22;6119;52.372;8.990;2022-08-11T18:27:17;31.40;56.80
12111;DHT22;6119;52.372;8.990;2022-08-11T18:30:23;31.40;56.40
12111;DHT22;6119;52.372;8.990;2022-08-11T18:33:33;31.20;57.60
12111;DHT22;6119;52.372;8.990;2022-08-11T18:36:57;31.10;57.30
12111;DHT22;6119;52.372;8.990;2022-08-11T18:40:09;30.90;58.90
12111;DHT22;6119;52.372;8.990;2022-08-11T18:43:18;30.80;59.30
12111;DHT22;6119;52.372;8.990;2022-08-11T18:46:24;30.60;60.60
12111;DHT22;6119;52.372;8.990;2022-08-11T18:49:34;30.40;60.80
12111;DHT22;6119;52.372;8.990;2022-08-11T18:52:52;30.20;61.60
12111;DHT22;6119;52.372;8.990;2022-08-11T18:55:58;30.00;63.30
12111;DHT22;6119;52.372;8.990;2022-08-11T18:59:05;29.80;63.70
12111;DHT22;6119;52.372;8.990;2022-08-11T19:02:12;29.70;64.60
12111;DHT22;6119;52.372;8.990;2022-08-11T19:05:12;29.50;66.20
12111;DHT22;6119;52.372;8.990;2022-08-11T19:08:44;29.30;68.20
12111;DHT22;6119;52.372;8.990;2022-08-11T19:11:49;29.10;66.60
12111;DHT22;6119;52.372;8.990;2022-08-11T19:14:57;28.90;68.20
12111;DHT22;6119;52.372;8.990;2022-08-11T19:18:02;28.80;67.50
12111;DHT22;6119;52.372;8.990;2022-08-11T19:21:07;28.70;68.50
12111;DHT22;6119;52.372;8.990;2022-08-11T19:24:13;28.60;69.90
12111;DHT22;6119;52.372;8.990;2022-08-11T19:27:19;28.40;70.40
12111;DHT22;6119;52.372;8.990;2022-08-11T19:30:27;28.30;69.60
12111;DHT22;6119;52.372;8.990;2022-08-11T19:33:32;28.20;71.50